Time,TemperatureF,DewpointF,PressureIn,WindDirection,WindDirectionDegrees,WindSpeedMPH,WindSpeedGustMPH,Humidity,HourlyPrecipIn,Conditions,Clouds,dailyrainin,SoftwareType,DateUTC
2013-03-30 01:00:00,50.0,38.3,30.03,North,-999,-999.0,0.0,64,0.00,,---,0.00,VWS V14.01,2013-03-30 05:00:00,
2013-03-30 01:06:00,50.0,38.3,30.03,North,-999,-999.0,0.0,64,0.00,,---,0.00,VWS V14.01,2013-03-30 05:06:00,
2013-03-30 02:00:00,48.4,38.7,30.02,North,-999,-999.0,0.0,69,0.00,,---,0.00,VWS V14.01,2013-03-30 06:00:00,
2013-03-30 02:05:00,48.4,38.7,30.02,North,-999,-999.0,0.0,69,0.00,,---,0.00,VWS V14.01,2013-03-30 06:05:00,
2013-03-30 03:00:00,47.9,39.7,30.00,North,-999,-999.0,0.0,73,0.00,,---,0.00,VWS V14.01,2013-03-30 07:00:00,
2013-03-30 03:05:00,47.9,39.7,30.00,North,-999,-999.0,0.0,73,0.00,,---,0.00,VWS V14.01,2013-03-30 07:05:00,
2013-03-30 04:00:00,47.7,40.2,30.00,North,-999,-999.0,0.0,75,0.00,,---,0.00,VWS V14.01,2013-03-30 08:00:00,
2013-03-30 04:06:00,47.7,40.2,30.00,North,-999,-999.0,0.0,75,0.00,,---,0.00,VWS V14.01,2013-03-30 08:06:00,
2013-03-30 11:00:00,67.0,49.3,30.01,North,-999,-999.0,0.0,53,0.00,,---,0.00,VWS V14.01,2013-03-30 15:00:00,
2013-03-30 11:05:00,67.3,49.1,30.01,North,-999,-999.0,0.0,52,0.00,,---,0.00,VWS V14.01,2013-03-30 15:05:00,
2013-03-30 11:10:00,67.9,49.1,30.01,North,-999,-999.0,0.0,51,0.00,,---,0.00,VWS V14.01,2013-03-30 15:10:00,
2013-03-30 11:15:00,69.1,49.7,30.01,North,-999,-999.0,0.0,50,0.00,,---,0.00,VWS V14.01,2013-03-30 15:15:00,
2013-03-30 11:20:00,70.2,50.2,30.00,North,-999,-999.0,0.0,49,0.00,,---,0.00,VWS V14.01,2013-03-30 15:20:00,
2013-03-30 11:25:00,70.6,49.4,30.00,North,-999,-999.0,0.0,47,0.00,,---,0.00,VWS V14.01,2013-03-30 15:25:00,
2013-03-30 11:30:00,70.7,49.5,30.00,North,-999,-999.0,0.0,47,0.00,,---,0.00,VWS V14.01,2013-03-30 15:30:00,
2013-03-30 11:35:00,71.6,49.8,30.00,North,-999,-999.0,0.0,46,0.00,,---,0.00,VWS V14.01,2013-03-30 15:35:00,
2013-03-30 11:40:00,72.7,49.5,30.00,North,-999,-999.0,0.0,44,0.00,,---,0.00,VWS V14.01,2013-03-30 15:40:00,
2013-03-30 11:45:00,72.9,49.1,30.00,North,-999,-999.0,0.0,43,0.00,,---,0.00,VWS V14.01,2013-03-30 15:45:00,
2013-03-30 11:50:00,73.4,49.6,30.00,North,-999,-999.0,0.0,43,0.00,,---,0.00,VWS V14.01,2013-03-30 15:50:00,
2013-03-30 11:55:00,72.7,46.3,30.00,North,-999,-999.0,0.0,39,0.00,,---,0.00,VWS V14.01,2013-03-30 15:55:00,
2013-03-30 12:01:00,72.5,47.5,30.00,North,-999,-999.0,0.0,41,0.00,,---,0.00,VWS V14.01,2013-03-30 16:01:00,
2013-03-30 12:06:00,72.0,45.0,30.00,North,-999,-999.0,0.0,38,0.00,,---,0.00,VWS V14.01,2013-03-30 16:06:00,
2013-03-30 12:12:00,71.6,46.0,29.99,North,-999,-999.0,0.0,40,0.00,,---,0.00,VWS V14.01,2013-03-30 16:12:00,
2013-03-30 12:17:00,71.6,45.4,30.00,North,-999,-999.0,0.0,39,0.00,,---,0.00,VWS V14.01,2013-03-30 16:17:00,
2013-03-30 12:22:00,71.8,46.2,29.99,North,-999,-999.0,0.0,40,0.00,,---,0.00,VWS V14.01,2013-03-30 16:22:00,
2013-03-30 12:27:00,72.9,45.8,29.99,North,-999,-999.0,0.0,38,0.00,,---,0.00,VWS V14.01,2013-03-30 16:27:00,
2013-03-30 12:32:00,73.6,46.5,29.98,North,-999,-999.0,0.0,38,0.00,,---,0.00,VWS V14.01,2013-03-30 16:32:00,
2013-03-30 12:37:00,74.5,47.2,29.98,North,-999,-999.0,0.0,38,0.00,,---,0.00,VWS V14.01,2013-03-30 16:37:00,
2013-03-30 12:43:00,75.4,45.9,29.98,North,-999,-999.0,0.0,35,0.00,,---,0.00,VWS V14.01,2013-03-30 16:43:00,
2013-03-30 12:49:00,75.4,45.9,29.98,North,-999,-999.0,0.0,35,0.00,,---,0.00,VWS V14.01,2013-03-30 16:49:00,
2013-03-30 13:00:00,76.7,44.7,29.97,North,-999,-999.0,0.0,32,0.00,,---,0.00,VWS V14.01,2013-03-30 17:00:00,
2013-03-30 13:05:00,76.7,44.7,29.97,North,-999,-999.0,0.0,32,0.00,,---,0.00,VWS V14.01,2013-03-30 17:05:00,
2013-03-30 14:00:00,74.0,43.9,29.95,North,-999,-999.0,0.0,34,0.00,,---,0.00,VWS V14.01,2013-03-30 18:00:00,
2013-03-30 14:06:00,74.0,43.9,29.95,North,-999,-999.0,0.0,34,0.00,,---,0.00,VWS V14.01,2013-03-30 18:06:00,
2013-03-30 16:00:00,77.9,44.0,29.90,North,-999,-999.0,0.0,30,0.00,,---,0.00,VWS V14.01,2013-03-30 20:00:00,
2013-03-30 16:05:00,77.9,44.0,29.90,North,-999,-999.0,0.0,30,0.00,,---,0.00,VWS V14.01,2013-03-30 20:05:00,
2013-03-30 17:00:00,76.0,42.4,29.88,North,-999,-999.0,0.0,30,0.00,,---,0.00,VWS V14.01,2013-03-30 21:00:00,
2013-03-30 17:06:00,76.0,42.4,29.88,North,-999,-999.0,0.0,30,0.00,,---,0.00,VWS V14.01,2013-03-30 21:06:00,
2013-03-30 19:00:00,67.7,40.5,29.87,North,-999,-999.0,0.0,37,0.00,,---,0.00,VWS V14.01,2013-03-30 23:00:00,
2013-03-30 19:07:00,67.7,40.5,29.87,North,-999,-999.0,0.0,37,0.00,,---,0.00,VWS V14.01,2013-03-30 23:07:00,